sensor_id;sensor_type;location;lat;lon;timestamp;temperature;humidity
54006;DHT22;39919;38.160;-122.260;2022-12-07T00:02:01;14.00;69.00
54006;DHT22;39919;38.160;-122.260;2022-12-07T00:04:30;13.90;69.10
54006;DHT22;39919;38.160;-122.260;2022-12-07T00:07:00;13.90;68.80
54006;DHT22;39919;38.160;-122.260;2022-12-07T00:09:28;13.80;68.20
54006;DHT22;39919;38.160;-122.260;2022-12-07T00:11:59;13.80;68.40
54006;DHT22;39919;38.160;-122.260;2022-12-07T00:14:27;13.70;68.60
54006;DHT22;39919;38.160;-122.260;2022-12-07T00:16:59;13.70;68.90
54006;DHT22;39919;38.160;-122.260;2022-12-07T00:19:27;13.70;68.50
54006;DHT22;39919;38.160;-122.260;2022-12-07T00:21:56;13.70;68.80
54006;DHT22;39919;38.160;-122.260;2022-12-07T00:24:26;13.60;68.80
54006;DHT22;39919;38.160;-122.260;2022-12-07T00:26:55;13.60;69.10
54006;DHT22;39919;38.160;-122.260;2022-12-07T00:29:25;13.60;69.30
54006;DHT22;39919;38.160;-122.260;2022-12-07T00:32:03;13.50;69.30
54006;DHT22;39919;38.160;-122.260;2022-12-07T00:34:32;13.50;69.50
54006;DHT22;39919;38.160;-122.260;2022-12-07T00:37:00;13.40;69.60
54006;DHT22;39919;38.160;-122.260;2022-12-07T00:39:30;13.40;69.80
54006;DHT22;39919;38.160;-122.260;2022-12-07T00:41:59;13.30;69.90
54006;DHT22;39919;38.160;-122.260;2022-12-07T00:44:28;13.30;70.10
54006;DHT22;39919;38.160;-122.260;2022-12-07T00:47:02;13.30;70.20
54006;DHT22;39919;38.160;-122.260;2022-12-07T00:49:34;13.20;70.30
54006;DHT22;39919;38.160;-122.260;2022-12-07T00:52:02;13.10;70.30
54006;DHT22;39919;38.160;-122.260;2022-12-07T00:54:35;13.00;70.70
54006;DHT22;39919;38.160;-122.260;2022-12-07T00:57:03;13.00;71.10
54006;DHT22;39919;38.160;-122.260;2022-12-07T00:59:32;12.90;71.10
54006;DHT22;39919;38.160;-122.260;2022-12-07T01:02:00;12.90;71.30
54006;DHT22;39919;38.160;-122.260;2022-12-07T01:04:29;12.80;71.50
54006;DHT22;39919;38.160;-122.260;2022-12-07T01:06:57;12.70;71.70
54006;DHT22;39919;38.160;-122.260;2022-12-07T01:09:26;12.70;71.90
54006;DHT22;39919;38.160;-122.260;2022-12-07T01:11:56;12.60;72.20
54006;DHT22;39919;38.160;-122.260;2022-12-07T01:14:24;12.50;72.40
54006;DHT22;39919;38.160;-122.260;2022-12-07T01:16:52;12.40;73.10
54006;DHT22;39919;38.160;-122.260;2022-12-07T01:19:21;12.40;73.80
54006;DHT22;39919;38.160;-122.260;2022-12-07T01:21:55;12.30;73.70
54006;DHT22;39919;38.160;-122.260;2022-12-07T01:24:23;12.20;73.50
54006;DHT22;39919;38.160;-122.260;2022-12-07T01:26:52;12.20;73.60
54006;DHT22;39919;38.160;-122.260;2022-12-07T01:29:24;12.10;73.60
54006;DHT22;39919;38.160;-122.260;2022-12-07T01:31:54;12.00;73.50
54006;DHT22;39919;38.160;-122.260;2022-12-07T01:34:23;12.00;74.60
54006;DHT22;39919;38.160;-122.260;2022-12-07T01:36:51;11.90;75.80
54006;DHT22;39919;38.160;-122.260;2022-12-07T01:39:19;11.90;76.70
54006;DHT22;39919;38.160;-122.260;2022-12-07T01:41:52;11.80;77.10
54006;DHT22;39919;38.160;-122.260;2022-12-07T01:44:22;11.80;77.20
54006;DHT22;39919;38.160;-122.260;2022-12-07T01:47:07;11.70;76.90
54006;DHT22;39919;38.160;-122.260;2022-12-07T01:49:37;11.60;77.60
54006;DHT22;39919;38.160;-122.260;2022-12-07T01:52:09;11.50;77.70
54006;DHT22;39919;38.160;-122.260;2022-12-07T01:54:40;11.50;77.40
54006;DHT22;39919;38.160;-122.260;2022-12-07T01:57:11;11.40;77.50
54006;DHT22;39919;38.160;-122.260;2022-12-07T01:59:49;11.30;78.10
54006;DHT22;39919;38.160;-122.260;2022-12-07T02:02:25;11.20;77.90
54006;DHT22;39919;38.160;-122.260;2022-12-07T02:04:58;11.20;77.70
54006;DHT22;39919;38.160;-122.260;2022-12-07T02:07:29;11.10;77.70
54006;DHT22;39919;38.160;-122.260;2022-12-07T02:10:13;11.00;78.10
54006;DHT22;39919;38.160;-122.260;2022-12-07T02:12:45;11.00;78.00
54006;DHT22;39919;38.160;-122.260;2022-12-07T02:15:16;10.90;78.70
54006;DHT22;39919;38.160;-122.260;2022-12-07T02:17:47;10.80;78.70
54006;DHT22;39919;38.160;-122.260;2022-12-07T02:20:19;10.80;79.30
54006;DHT22;39919;38.160;-122.260;2022-12-07T02:23:07;10.70;79.80
54006;DHT22;39919;38.160;-122.260;2022-12-07T02:28:35;10.60;80.30
54006;DHT22;39919;38.160;-122.260;2022-12-07T02:31:10;10.50;80.20
54006;DHT22;39919;38.160;-122.260;2022-12-07T02:33:40;10.40;80.90
54006;DHT22;39919;38.160;-122.260;2022-12-07T02:36:12;10.40;81.00
54006;DHT22;39919;38.160;-122.260;2022-12-07T02:38:43;10.30;80.80
54006;DHT22;39919;38.160;-122.260;2022-12-07T02:41:14;10.30;81.10
54006;DHT22;39919;38.160;-122.260;2022-12-07T02:43:46;10.20;81.40
54006;DHT22;39919;38.160;-122.260;2022-12-07T02:46:20;10.10;81.90
54006;DHT22;39919;38.160;-122.260;2022-12-07T02:48:50;10.10;82.00
54006;DHT22;39919;38.160;-122.260;2022-12-07T02:51:19;10.10;82.60
54006;DHT22;39919;38.160;-122.260;2022-12-07T02:53:47;10.00;83.10
54006;DHT22;39919;38.160;-122.260;2022-12-07T02:56:35;10.00;83.50
54006;DHT22;39919;38.160;-122.260;2022-12-07T02:59:15;9.90;84.30
54006;DHT22;39919;38.160;-122.260;2022-12-07T03:01:48;9.90;84.60
54006;DHT22;39919;38.160;-122.260;2022-12-07T03:04:23;9.80;84.50
54006;DHT22;39919;38.160;-122.260;2022-12-07T03:06:56;9.80;84.50
54006;DHT22;39919;38.160;-122.260;2022-12-07T03:09:32;9.70;84.50
54006;DHT22;39919;38.160;-122.260;2022-12-07T03:12:05;9.70;85.20
54006;DHT22;39919;38.160;-122.260;2022-12-07T03:14:44;9.60;85.40
54006;DHT22;39919;38.160;-122.260;2022-12-07T03:17:21;9.60;85.70
54006;DHT22;39919;38.160;-122.260;2022-12-07T03:19:52;9.50;86.10
54006;DHT22;39919;38.160;-122.260;2022-12-07T03:22:23;9.50;86.20
54006;DHT22;39919;38.160;-122.260;2022-12-07T03:24:52;9.50;86.30
54006;DHT22;39919;38.160;-122.260;2022-12-07T03:27:22;9.40;86.20
54006;DHT22;39919;38.160;-122.260;2022-12-07T03:32:23;9.30;85.30
54006;DHT22;39919;38.160;-122.260;2022-12-07T03:34:56;9.20;86.00
54006;DHT22;39919;38.160;-122.260;2022-12-07T03:37:29;9.20;86.50
54006;DHT22;39919;38.160;-122.260;2022-12-07T03:40:01;9.20;86.70
54006;DHT22;39919;38.160;-122.260;2022-12-07T03:42:33;9.10;87.10
54006;DHT22;39919;38.160;-122.260;2022-12-07T03:45:04;9.00;87.60
54006;DHT22;39919;38.160;-122.260;2022-12-07T03:47:37;9.00;88.10
54006;DHT22;39919;38.160;-122.260;2022-12-07T03:50:12;9.00;88.20
54006;DHT22;39919;38.160;-122.260;2022-12-07T03:52:41;9.00;88.90
54006;DHT22;39919;38.160;-122.260;2022-12-07T03:55:15;8.90;91.60
54006;DHT22;39919;38.160;-122.260;2022-12-07T04:00:15;8.80;89.60
54006;DHT22;39919;38.160;-122.260;2022-12-07T04:02:45;8.80;89.90
54006;DHT22;39919;38.160;-122.260;2022-12-07T04:05:14;8.70;90.10
54006;DHT22;39919;38.160;-122.260;2022-12-07T04:07:42;8.70;90.20
54006;DHT22;39919;38.160;-122.260;2022-12-07T04:10:10;8.70;90.20
54006;DHT22;39919;38.160;-122.260;2022-12-07T04:12:41;8.60;90.60
54006;DHT22;39919;38.160;-122.260;2022-12-07T04:15:10;8.60;91.10
54006;DHT22;39919;38.160;-122.260;2022-12-07T04:17:39;8.60;91.50
54006;DHT22;39919;38.160;-122.260;2022-12-07T04:20:15;8.60;91.70
54006;DHT22;39919;38.160;-122.260;2022-12-07T04:22:45;8.50;91.60
54006;DHT22;39919;38.160;-122.260;2022-12-07T04:25:20;8.50;91.80
54006;DHT22;39919;38.160;-122.260;2022-12-07T04:28:16;8.50;92.10
54006;DHT22;39919;38.160;-122.260;2022-12-07T04:42:43;8.20;92.00
54006;DHT22;39919;38.160;-122.260;2022-12-07T04:51:20;8.10;92.00
54006;DHT22;39919;38.160;-122.260;2022-12-07T04:54:34;8.10;92.60
54006;DHT22;39919;38.160;-122.260;2022-12-07T04:57:08;8.10;93.00
54006;DHT22;39919;38.160;-122.260;2022-12-07T04:59:40;8.00;93.40
54006;DHT22;39919;38.160;-122.260;2022-12-07T05:02:09;7.90;93.50
54006;DHT22;39919;38.160;-122.260;2022-12-07T05:04:37;7.80;93.50
54006;DHT22;39919;38.160;-122.260;2022-12-07T05:07:05;7.80;93.50
54006;DHT22;39919;38.160;-122.260;2022-12-07T05:09:33;7.80;93.60
54006;DHT22;39919;38.160;-122.260;2022-12-07T05:12:02;7.70;93.70
54006;DHT22;39919;38.160;-122.260;2022-12-07T05:14:30;7.70;94.20
54006;DHT22;39919;38.160;-122.260;2022-12-07T05:17:00;7.70;94.50
54006;DHT22;39919;38.160;-122.260;2022-12-07T05:19:28;7.60;94.60
54006;DHT22;39919;38.160;-122.260;2022-12-07T05:21:57;7.60;94.10
54006;DHT22;39919;38.160;-122.260;2022-12-07T05:24:25;7.60;94.10
54006;DHT22;39919;38.160;-122.260;2022-12-07T05:26:53;7.50;94.20
54006;DHT22;39919;38.160;-122.260;2022-12-07T05:29:22;7.50;94.50
54006;DHT22;39919;38.160;-122.260;2022-12-07T05:31:50;7.50;94.70
54006;DHT22;39919;38.160;-122.260;2022-12-07T05:34:20;7.40;95.00
54006;DHT22;39919;38.160;-122.260;2022-12-07T05:36:48;7.40;95.10
54006;DHT22;39919;38.160;-122.260;2022-12-07T05:39:19;7.40;95.40
54006;DHT22;39919;38.160;-122.260;2022-12-07T05:41:47;7.30;96.00
54006;DHT22;39919;38.160;-122.260;2022-12-07T05:44:33;7.30;96.10
54006;DHT22;39919;38.160;-122.260;2022-12-07T05:47:01;7.30;96.30
54006;DHT22;39919;38.160;-122.260;2022-12-07T05:49:34;7.20;96.20
54006;DHT22;39919;38.160;-122.260;2022-12-07T05:52:02;7.20;96.20
54006;DHT22;39919;38.160;-122.260;2022-12-07T05:54:31;7.20;96.00
54006;DHT22;39919;38.160;-122.260;2022-12-07T05:56:59;7.20;95.70
54006;DHT22;39919;38.160;-122.260;2022-12-07T05:59:27;7.10;95.80
54006;DHT22;39919;38.160;-122.260;2022-12-07T06:01:55;7.10;95.80
54006;DHT22;39919;38.160;-122.260;2022-12-07T06:04:24;7.10;95.80
54006;DHT22;39919;38.160;-122.260;2022-12-07T06:06:54;7.00;96.00
54006;DHT22;39919;38.160;-122.260;2022-12-07T06:09:24;7.00;95.90
54006;DHT22;39919;38.160;-122.260;2022-12-07T06:11:54;7.00;95.70
54006;DHT22;39919;38.160;-122.260;2022-12-07T06:14:39;6.90;95.80
54006;DHT22;39919;38.160;-122.260;2022-12-07T06:17:08;6.90;95.80
54006;DHT22;39919;38.160;-122.260;2022-12-07T06:19:38;6.90;96.20
54006;DHT22;39919;38.160;-122.260;2022-12-07T06:22:10;6.80;96.20
54006;DHT22;39919;38.160;-122.260;2022-12-07T06:24:39;6.80;96.50
54006;DHT22;39919;38.160;-122.260;2022-12-07T06:27:07;6.80;96.60
54006;DHT22;39919;38.160;-122.260;2022-12-07T06:29:36;6.80;96.80
54006;DHT22;39919;38.160;-122.260;2022-12-07T06:32:04;6.70;96.80
54006;DHT22;39919;38.160;-122.260;2022-12-07T06:34:33;6.70;96.80
54006;DHT22;39919;38.160;-122.260;2022-12-07T06:37:01;6.70;96.80
54006;DHT22;39919;38.160;-122.260;2022-12-07T06:39:32;6.60;97.00
54006;DHT22;39919;38.160;-122.260;2022-12-07T06:42:00;6.60;97.20
54006;DHT22;39919;38.160;-122.260;2022-12-07T06:44:31;6.60;97.20
54006;DHT22;39919;38.160;-122.260;2022-12-07T06:46:59;6.60;97.50
54006;DHT22;39919;38.160;-122.260;2022-12-07T06:49:28;6.50;97.80
54006;DHT22;39919;38.160;-122.260;2022-12-07T06:51:56;6.50;97.90
54006;DHT22;39919;38.160;-122.260;2022-12-07T06:54:24;6.50;97.80
54006;DHT22;39919;38.160;-122.260;2022-12-07T06:56:55;6.40;98.00
54006;DHT22;39919;38.160;-122.260;2022-12-07T06:59:23;6.50;98.20
54006;DHT22;39919;38.160;-122.260;2022-12-07T07:01:51;6.40;98.10
54006;DHT22;39919;38.160;-122.260;2022-12-07T07:04:22;6.40;98.30
54006;DHT22;39919;38.160;-122.260;2022-12-07T07:06:50;6.30;98.10
54006;DHT22;39919;38.160;-122.260;2022-12-07T07:09:19;6.30;97.90
54006;DHT22;39919;38.160;-122.260;2022-12-07T07:11:47;6.30;97.80
54006;DHT22;39919;38.160;-122.260;2022-12-07T07:14:17;6.30;97.70
54006;DHT22;39919;38.160;-122.260;2022-12-07T07:16:47;6.20;97.90
54006;DHT22;39919;38.160;-122.260;2022-12-07T07:19:17;6.20;97.70
54006;DHT22;39919;38.160;-122.260;2022-12-07T07:21:45;6.20;97.60
54006;DHT22;39919;38.160;-122.260;2022-12-07T07:24:14;6.20;97.60
54006;DHT22;39919;38.160;-122.260;2022-12-07T07:26:42;6.30;99.90
54006;DHT22;39919;38.160;-122.260;2022-12-07T07:29:10;6.10;98.10
54006;DHT22;39919;38.160;-122.260;2022-12-07T07:31:40;6.10;97.80
54006;DHT22;39919;38.160;-122.260;2022-12-07T07:34:08;6.00;97.80
54006;DHT22;39919;38.160;-122.260;2022-12-07T07:36:37;6.00;97.70
54006;DHT22;39919;38.160;-122.260;2022-12-07T07:39:05;5.90;97.80
54006;DHT22;39919;38.160;-122.260;2022-12-07T07:41:33;5.90;98.00
54006;DHT22;39919;38.160;-122.260;2022-12-07T07:44:02;5.90;98.10
54006;DHT22;39919;38.160;-122.260;2022-12-07T07:46:31;5.90;98.20
54006;DHT22;39919;38.160;-122.260;2022-12-07T07:49:01;5.90;98.50
54006;DHT22;39919;38.160;-122.260;2022-12-07T07:51:29;5.80;98.50
54006;DHT22;39919;38.160;-122.260;2022-12-07T07:53:58;5.80;98.70
54006;DHT22;39919;38.160;-122.260;2022-12-07T07:56:26;5.80;98.90
54006;DHT22;39919;38.160;-122.260;2022-12-07T07:58:54;5.70;98.80
54006;DHT22;39919;38.160;-122.260;2022-12-07T08:01:23;5.70;98.70
54006;DHT22;39919;38.160;-122.260;2022-12-07T08:03:53;5.70;98.90
54006;DHT22;39919;38.160;-122.260;2022-12-07T08:06:23;5.70;99.00
54006;DHT22;39919;38.160;-122.260;2022-12-07T08:08:51;5.70;99.00
54006;DHT22;39919;38.160;-122.260;2022-12-07T08:11:20;5.60;98.90
54006;DHT22;39919;38.160;-122.260;2022-12-07T08:13:48;5.60;99.00
54006;DHT22;39919;38.160;-122.260;2022-12-07T08:16:17;5.60;99.00
54006;DHT22;39919;38.160;-122.260;2022-12-07T08:18:45;5.60;98.90
54006;DHT22;39919;38.160;-122.260;2022-12-07T08:21:14;5.60;99.00
54006;DHT22;39919;38.160;-122.260;2022-12-07T08:23:44;5.50;99.00
54006;DHT22;39919;38.160;-122.260;2022-12-07T08:26:13;5.50;99.10
54006;DHT22;39919;38.160;-122.260;2022-12-07T08:28:41;5.50;99.00
54006;DHT22;39919;38.160;-122.260;2022-12-07T08:31:13;5.40;99.00
54006;DHT22;39919;38.160;-122.260;2022-12-07T08:33:41;5.50;99.00
54006;DHT22;39919;38.160;-122.260;2022-12-07T08:36:10;5.40;98.70
54006;DHT22;39919;38.160;-122.260;2022-12-07T08:38:39;5.40;98.50
54006;DHT22;39919;38.160;-122.260;2022-12-07T08:41:09;5.40;98.50
54006;DHT22;39919;38.160;-122.260;2022-12-07T08:43:37;5.30;98.40
54006;DHT22;39919;38.160;-122.260;2022-12-07T08:46:08;5.30;98.50
54006;DHT22;39919;38.160;-122.260;2022-12-07T08:48:38;5.30;98.50
54006;DHT22;39919;38.160;-122.260;2022-12-07T08:51:07;5.20;98.50
54006;DHT22;39919;38.160;-122.260;2022-12-07T08:53:36;5.30;98.70
54006;DHT22;39919;38.160;-122.260;2022-12-07T08:56:05;5.20;99.00
54006;DHT22;39919;38.160;-122.260;2022-12-07T08:58:35;5.20;99.30
54006;DHT22;39919;38.160;-122.260;2022-12-07T09:01:04;5.20;99.40
54006;DHT22;39919;38.160;-122.260;2022-12-07T09:03:33;5.20;99.50
54006;DHT22;39919;38.160;-122.260;2022-12-07T09:06:01;5.20;99.80
54006;DHT22;39919;38.160;-122.260;2022-12-07T09:08:32;5.20;99.80
54006;DHT22;39919;38.160;-122.260;2022-12-07T09:11:00;5.20;99.90
54006;DHT22;39919;38.160;-122.260;2022-12-07T09:13:29;5.20;99.90
54006;DHT22;39919;38.160;-122.260;2022-12-07T09:15:59;5.20;99.90
54006;DHT22;39919;38.160;-122.260;2022-12-07T09:18:27;5.20;99.90
54006;DHT22;39919;38.160;-122.260;2022-12-07T09:20:56;5.10;99.90
54006;DHT22;39919;38.160;-122.260;2022-12-07T09:23:24;5.10;99.90
54006;DHT22;39919;38.160;-122.260;2022-12-07T09:25:52;5.10;99.90
54006;DHT22;39919;38.160;-122.260;2022-12-07T09:28:21;5.10;99.90
54006;DHT22;39919;38.160;-122.260;2022-12-07T09:30:49;5.10;99.80
54006;DHT22;39919;38.160;-122.260;2022-12-07T09:33:20;5.10;99.90
54006;DHT22;39919;38.160;-122.260;2022-12-07T09:35:48;5.10;99.90
54006;DHT22;39919;38.160;-122.260;2022-12-07T09:38:17;5.00;99.90
54006;DHT22;39919;38.160;-122.260;2022-12-07T09:40:46;5.00;99.90
54006;DHT22;39919;38.160;-122.260;2022-12-07T09:43:15;5.00;99.90
54006;DHT22;39919;38.160;-122.260;2022-12-07T09:45:45;5.00;99.90
54006;DHT22;39919;38.160;-122.260;2022-12-07T09:48:16;5.00;99.90
54006;DHT22;39919;38.160;-122.260;2022-12-07T09:50:47;4.90;99.90
54006;DHT22;39919;38.160;-122.260;2022-12-07T09:53:18;4.90;99.80
54006;DHT22;39919;38.160;-122.260;2022-12-07T09:55:48;4.90;99.80
54006;DHT22;39919;38.160;-122.260;2022-12-07T09:58:19;4.90;99.80
54006;DHT22;39919;38.160;-122.260;2022-12-07T10:00:48;5.00;99.90
54006;DHT22;39919;38.160;-122.260;2022-12-07T10:03:21;4.80;99.90
54006;DHT22;39919;38.160;-122.260;2022-12-07T10:05:51;4.80;99.90
54006;DHT22;39919;38.160;-122.260;2022-12-07T10:08:21;4.80;99.90
54006;DHT22;39919;38.160;-122.260;2022-12-07T10:10:51;4.70;99.90
54006;DHT22;39919;38.160;-122.260;2022-12-07T10:13:20;4.80;99.90
54006;DHT22;39919;38.160;-122.260;2022-12-07T10:15:49;4.60;99.90
54006;DHT22;39919;38.160;-122.260;2022-12-07T10:18:20;5.60;99.90
54006;DHT22;39919;38.160;-122.260;2022-12-07T10:20:48;4.70;99.90
54006;DHT22;39919;38.160;-122.260;2022-12-07T10:25:47;4.70;99.90
54006;DHT22;39919;38.160;-122.260;2022-12-07T10:28:21;4.60;99.90
54006;DHT22;39919;38.160;-122.260;2022-12-07T10:30:51;4.60;99.90
54006;DHT22;39919;38.160;-122.260;2022-12-07T10:33:30;4.60;99.90
54006;DHT22;39919;38.160;-122.260;2022-12-07T10:35:58;4.60;99.90
54006;DHT22;39919;38.160;-122.260;2022-12-07T10:38:27;4.60;99.90
54006;DHT22;39919;38.160;-122.260;2022-12-07T10:41:06;4.60;99.90
54006;DHT22;39919;38.160;-122.260;2022-12-07T10:43:35;4.50;99.90
54006;DHT22;39919;38.160;-122.260;2022-12-07T10:46:09;4.50;99.90
54006;DHT22;39919;38.160;-122.260;2022-12-07T10:48:42;4.50;99.90
54006;DHT22;39919;38.160;-122.260;2022-12-07T10:51:12;4.40;99.90
54006;DHT22;39919;38.160;-122.260;2022-12-07T10:53:48;4.40;99.90
54006;DHT22;39919;38.160;-122.260;2022-12-07T10:59:17;4.40;99.90
54006;DHT22;39919;38.160;-122.260;2022-12-07T11:01:50;4.40;99.90
54006;DHT22;39919;38.160;-122.260;2022-12-07T11:04:24;4.40;99.90
54006;DHT22;39919;38.160;-122.260;2022-12-07T11:06:57;4.40;99.90
54006;DHT22;39919;38.160;-122.260;2022-12-07T11:09:34;4.30;99.90
54006;DHT22;39919;38.160;-122.260;2022-12-07T11:12:09;4.30;99.90
54006;DHT22;39919;38.160;-122.260;2022-12-07T11:14:44;4.30;99.90
54006;DHT22;39919;38.160;-122.260;2022-12-07T11:17:14;4.30;99.90
54006;DHT22;39919;38.160;-122.260;2022-12-07T11:19:52;4.30;99.90
54006;DHT22;39919;38.160;-122.260;2022-12-07T11:22:24;4.20;99.90
54006;DHT22;39919;38.160;-122.260;2022-12-07T11:24:56;4.20;99.90
54006;DHT22;39919;38.160;-122.260;2022-12-07T11:27:28;4.30;99.90
54006;DHT22;39919;38.160;-122.260;2022-12-07T11:30:10;4.20;99.90
54006;DHT22;39919;38.160;-122.260;2022-12-07T11:32:51;4.20;99.90
54006;DHT22;39919;38.160;-122.260;2022-12-07T11:35:23;4.20;99.90
54006;DHT22;39919;38.160;-122.260;2022-12-07T11:37:55;4.20;99.90
54006;DHT22;39919;38.160;-122.260;2022-12-07T11:40:26;4.20;99.90
54006;DHT22;39919;38.160;-122.260;2022-12-07T11:42:57;4.20;99.90
54006;DHT22;39919;38.160;-122.260;2022-12-07T11:45:28;4.20;99.90
54006;DHT22;39919;38.160;-122.260;2022-12-07T11:47:59;4.20;99.90
54006;DHT22;39919;38.160;-122.260;2022-12-07T11:50:32;4.10;99.90
54006;DHT22;39919;38.160;-122.260;2022-12-07T11:53:01;4.10;99.90
54006;DHT22;39919;38.160;-122.260;2022-12-07T11:55:36;4.10;99.90
54006;DHT22;39919;38.160;-122.260;2022-12-07T11:58:10;4.10;99.90
54006;DHT22;39919;38.160;-122.260;2022-12-07T12:00:42;4.10;99.90
54006;DHT22;39919;38.160;-122.260;2022-12-07T12:03:11;4.10;99.90
54006;DHT22;39919;38.160;-122.260;2022-12-07T12:05:41;4.00;99.90
54006;DHT22;39919;38.160;-122.260;2022-12-07T12:08:12;4.10;99.90
54006;DHT22;39919;38.160;-122.260;2022-12-07T12:10:45;4.00;99.90
54006;DHT22;39919;38.160;-122.260;2022-12-07T12:13:36;4.00;99.90
54006;DHT22;39919;38.160;-122.260;2022-12-07T12:16:13;4.00;99.90
54006;DHT22;39919;38.160;-122.260;2022-12-07T12:18:49;3.90;99.80
54006;DHT22;39919;38.160;-122.260;2022-12-07T12:24:06;3.90;99.90
54006;DHT22;39919;38.160;-122.260;2022-12-07T12:26:38;3.80;99.90
54006;DHT22;39919;38.160;-122.260;2022-12-07T12:29:06;3.80;99.90
54006;DHT22;39919;38.160;-122.260;2022-12-07T12:31:37;3.80;99.90
54006;DHT22;39919;38.160;-122.260;2022-12-07T12:36:53;3.70;99.90
54006;DHT22;39919;38.160;-122.260;2022-12-07T12:39:21;3.70;99.90
54006;DHT22;39919;38.160;-122.260;2022-12-07T12:41:55;3.70;99.90
54006;DHT22;39919;38.160;-122.260;2022-12-07T12:44:40;3.70;99.90
54006;DHT22;39919;38.160;-122.260;2022-12-07T13:03:53;3.60;99.90
54006;DHT22;39919;38.160;-122.260;2022-12-07T13:06:31;3.50;99.90
54006;DHT22;39919;38.160;-122.260;2022-12-07T13:09:02;3.50;99.90
54006;DHT22;39919;38.160;-122.260;2022-12-07T13:11:32;3.50;99.90
54006;DHT22;39919;38.160;-122.260;2022-12-07T13:16:46;3.50;99.90
54006;DHT22;39919;38.160;-122.260;2022-12-07T13:24:58;3.40;99.90
54006;DHT22;39919;38.160;-122.260;2022-12-07T13:27:27;3.40;99.90
54006;DHT22;39919;38.160;-122.260;2022-12-07T13:29:56;3.40;99.90
54006;DHT22;39919;38.160;-122.260;2022-12-07T13:32:25;3.40;99.90
54006;DHT22;39919;38.160;-122.260;2022-12-07T13:34:54;3.40;99.90
54006;DHT22;39919;38.160;-122.260;2022-12-07T13:37:23;3.40;99.90
54006;DHT22;39919;38.160;-122.260;2022-12-07T13:39:54;3.40;99.90
54006;DHT22;39919;38.160;-122.260;2022-12-07T13:42:24;3.30;99.90
54006;DHT22;39919;38.160;-122.260;2022-12-07T13:44:53;3.30;99.90
54006;DHT22;39919;38.160;-122.260;2022-12-07T13:47:30;3.30;99.90
54006;DHT22;39919;38.160;-122.260;2022-12-07T13:50:01;3.30;99.90
54006;DHT22;39919;38.160;-122.260;2022-12-07T13:52:29;3.30;99.90
54006;DHT22;39919;38.160;-122.260;2022-12-07T13:55:01;3.30;99.90
54006;DHT22;39919;38.160;-122.260;2022-12-07T13:57:35;3.30;99.90
54006;DHT22;39919;38.160;-122.260;2022-12-07T14:00:04;3.20;99.90
54006;DHT22;39919;38.160;-122.260;2022-12-07T14:02:53;3.20;99.90
54006;DHT22;39919;38.160;-122.260;2022-12-07T14:05:23;3.20;99.90
54006;DHT22;39919;38.160;-122.260;2022-12-07T14:07:53;3.20;99.90
54006;DHT22;39919;38.160;-122.260;2022-12-07T14:10:23;3.20;99.90
54006;DHT22;39919;38.160;-122.260;2022-12-07T14:12:53;3.20;99.90
54006;DHT22;39919;38.160;-122.260;2022-12-07T14:15:22;3.20;99.90
54006;DHT22;39919;38.160;-122.260;2022-12-07T14:17:51;3.10;99.90
54006;DHT22;39919;38.160;-122.260;2022-12-07T14:20:30;3.10;99.90
54006;DHT22;39919;38.160;-122.260;2022-12-07T14:22:59;3.10;99.90
54006;DHT22;39919;38.160;-122.260;2022-12-07T14:25:44;3.10;99.90
54006;DHT22;39919;38.160;-122.260;2022-12-07T14:28:26;3.10;99.90
54006;DHT22;39919;38.160;-122.260;2022-12-07T14:30:55;3.10;99.90
54006;DHT22;39919;38.160;-122.260;2022-12-07T14:33:23;3.10;99.90
54006;DHT22;39919;38.160;-122.260;2022-12-07T14:35:52;3.10;99.90
54006;DHT22;39919;38.160;-122.260;2022-12-07T14:38:21;3.00;99.90
54006;DHT22;39919;38.160;-122.260;2022-12-07T14:40:50;3.00;99.90
54006;DHT22;39919;38.160;-122.260;2022-12-07T14:43:19;3.00;99.90
54006;DHT22;39919;38.160;-122.260;2022-12-07T14:45:49;3.00;99.90
54006;DHT22;39919;38.160;-122.260;2022-12-07T14:48:18;3.00;99.90
54006;DHT22;39919;38.160;-122.260;2022-12-07T14:50:48;3.00;99.90
54006;DHT22;39919;38.160;-122.260;2022-12-07T14:53:18;3.00;99.90
54006;DHT22;39919;38.160;-122.260;2022-12-07T14:55:49;3.00;99.90
54006;DHT22;39919;38.160;-122.260;2022-12-07T14:58:18;3.00;99.90
54006;DHT22;39919;38.160;-122.260;2022-12-07T15:00:46;3.00;99.90
54006;DHT22;39919;38.160;-122.260;2022-12-07T15:03:16;3.00;99.90
54006;DHT22;39919;38.160;-122.260;2022-12-07T15:05:45;3.00;99.90
54006;DHT22;39919;38.160;-122.260;2022-12-07T15:08:13;3.00;99.90
54006;DHT22;39919;38.160;-122.260;2022-12-07T15:10:41;2.90;99.90
54006;DHT22;39919;38.160;-122.260;2022-12-07T15:13:10;2.90;99.90
54006;DHT22;39919;38.160;-122.260;2022-12-07T15:15:55;2.90;99.90
54006;DHT22;39919;38.160;-122.260;2022-12-07T15:18:25;2.90;99.90
54006;DHT22;39919;38.160;-122.260;2022-12-07T15:20:53;2.90;99.90
54006;DHT22;39919;38.160;-122.260;2022-12-07T15:23:21;2.90;99.90
54006;DHT22;39919;38.160;-122.260;2022-12-07T15:25:50;2.90;99.90
54006;DHT22;39919;38.160;-122.260;2022-12-07T15:28:18;2.90;99.90
54006;DHT22;39919;38.160;-122.260;2022-12-07T15:30:47;2.90;99.90
54006;DHT22;39919;38.160;-122.260;2022-12-07T15:33:15;2.90;99.90
54006;DHT22;39919;38.160;-122.260;2022-12-07T15:35:45;2.90;99.90
54006;DHT22;39919;38.160;-122.260;2022-12-07T15:38:14;2.90;99.90
54006;DHT22;39919;38.160;-122.260;2022-12-07T15:40:42;2.90;99.90
54006;DHT22;39919;38.160;-122.260;2022-12-07T15:43:10;2.90;99.90
54006;DHT22;39919;38.160;-122.260;2022-12-07T15:45:52;3.00;99.90
54006;DHT22;39919;38.160;-122.260;2022-12-07T15:48:21;3.00;99.90
54006;DHT22;39919;38.160;-122.260;2022-12-07T15:50:51;3.00;99.90
54006;DHT22;39919;38.160;-122.260;2022-12-07T15:53:19;3.10;99.90
54006;DHT22;39919;38.160;-122.260;2022-12-07T15:55:48;3.10;99.90
54006;DHT22;39919;38.160;-122.260;2022-12-07T15:58:17;3.10;99.90
54006;DHT22;39919;38.160;-122.260;2022-12-07T16:00:45;3.10;99.90
54006;DHT22;39919;38.160;-122.260;2022-12-07T16:03:14;3.20;99.90
54006;DHT22;39919;38.160;-122.260;2022-12-07T16:05:43;3.30;99.90
54006;DHT22;39919;38.160;-122.260;2022-12-07T16:08:18;3.30;99.90
54006;DHT22;39919;38.160;-122.260;2022-12-07T16:10:46;3.40;99.90
54006;DHT22;39919;38.160;-122.260;2022-12-07T16:13:15;3.50;99.90
54006;DHT22;39919;38.160;-122.260;2022-12-07T16:15:44;3.50;99.90
54006;DHT22;39919;38.160;-122.260;2022-12-07T16:18:13;3.60;99.90
54006;DHT22;39919;38.160;-122.260;2022-12-07T16:20:41;3.60;99.90
54006;DHT22;39919;38.160;-122.260;2022-12-07T16:23:09;3.70;99.90
54006;DHT22;39919;38.160;-122.260;2022-12-07T16:25:39;3.80;99.90